Time;durP1;ratioP1;P1;durP2;ratioP2;P2;SDS_P1;SDS_P2;PMS_P1;PMS_P2;Temp;Humidity;BMP_temperature;BMP_pressure;BME280_temperature;BME280_humidity;BME280_pressure;Samples;Min_cycle;Max_cycle;Signal;HPM_P1;HPM_P2
2023/11/29 00:00:07;;;;;;;25.30;17.30;;;1.70;99.90;;;;;;5065140;28;20842;-75
2023/11/29 00:02:33;;;;;;;28.17;18.02;;;1.70;99.90;;;;;;5070424;28;20098;-75
2023/11/29 00:04:59;;;;;;;27.15;16.08;;;1.80;99.90;;;;;;5070411;28;20027;-74
2023/11/29 00:07:25;;;;;;;29.90;18.02;;;1.80;99.90;;;;;;5070265;28;20104;-74
2023/11/29 00:09:50;;;;;;;23.38;16.90;;;1.80;99.90;;;;;;5070499;28;20032;-74
2023/11/29 00:12:16;;;;;;;27.15;16.65;;;1.80;99.90;;;;;;5070064;28;20064;-73
2023/11/29 00:14:41;;;;;;;25.35;16.42;;;1.80;99.90;;;;;;5070543;28;20021;-73
2023/11/29 00:17:07;;;;;;;23.90;16.42;;;1.80;99.90;;;;;;5070066;28;20020;-73
2023/11/29 00:19:33;;;;;;;24.17;16.25;;;1.80;99.90;;;;;;5070561;28;20032;-73
2023/11/29 00:21:58;;;;;;;27.10;17.30;;;1.90;99.90;;;;;;5070155;28;20028;-73
2023/11/29 00:24:24;;;;;;;29.10;17.58;;;1.80;99.90;;;;;;5070033;28;20044;-72
2023/11/29 00:26:50;;;;;;;19.65;13.82;;;1.90;99.90;;;;;;5070277;28;20025;-72
2023/11/29 00:29:15;;;;;;;25.75;16.98;;;1.90;99.90;;;;;;5069954;28;20056;-73
2023/11/29 00:31:41;;;;;;;26.38;16.63;;;1.90;99.90;;;;;;5069882;28;20024;-72
2023/11/29 00:34:06;;;;;;;26.48;14.88;;;1.90;99.90;;;;;;5069763;28;20095;-73
2023/11/29 00:36:32;;;;;;;24.50;15.50;;;1.90;99.90;;;;;;5069706;28;20028;-72
2023/11/29 00:38:58;;;;;;;26.50;15.43;;;1.90;99.90;;;;;;5059145;28;20605;-72
2023/11/29 00:41:24;;;;;;;24.33;14.50;;;1.90;99.90;;;;;;5066238;28;20025;-73
2023/11/29 00:43:50;;;;;;;24.80;14.70;;;1.90;99.90;;;;;;5051394;28;20025;-72
2023/11/29 00:46:15;;;;;;;23.25;14.88;;;1.90;99.90;;;;;;5069479;28;20075;-73
2023/11/29 00:48:41;;;;;;;22.95;14.60;;;1.90;99.90;;;;;;5069435;28;20063;-72
2023/11/29 00:51:07;;;;;;;22.08;13.65;;;2.00;99.90;;;;;;5069744;28;20489;-72
2023/11/29 00:53:32;;;;;;;20.88;13.43;;;2.00;99.90;;;;;;5069479;28;20036;-72
2023/11/29 00:55:58;;;;;;;22.67;13.18;;;2.00;99.90;;;;;;5069576;28;20457;-72
2023/11/29 00:58:25;;;;;;;22.30;12.43;;;2.00;99.90;;;;;;5068974;28;20031;-72
2023/11/29 01:00:51;;;;;;;18.02;11.02;;;2.00;99.90;;;;;;5069185;28;20016;-72
2023/11/29 01:03:17;;;;;;;16.05;11.25;;;2.10;99.90;;;;;;5069235;28;20119;-72
2023/11/29 01:05:43;;;;;;;18.08;11.10;;;2.10;99.90;;;;;;5069210;28;20596;-71
2023/11/29 01:08:08;;;;;;;20.33;12.73;;;2.20;99.90;;;;;;5051001;28;20393;-72
2023/11/29 01:10:38;;;;;;;18.75;12.07;;;2.20;99.90;;;;;;5064873;28;20119;-72
2023/11/29 01:13:04;;;;;;;21.90;13.35;;;2.20;99.90;;;;;;5067861;28;20047;-72
2023/11/29 01:15:30;;;;;;;17.95;13.73;;;2.20;99.90;;;;;;5069171;28;20033;-72
2023/11/29 01:17:57;;;;;;;19.65;13.82;;;2.20;99.90;;;;;;5068458;28;20016;-72
2023/11/29 01:20:22;;;;;;;25.40;16.58;;;2.20;99.90;;;;;;5069419;28;20032;-72
2023/11/29 01:22:48;;;;;;;25.02;16.67;;;2.20;99.90;;;;;;5068860;28;20023;-73
2023/11/29 01:25:14;;;;;;;26.48;16.90;;;2.20;99.90;;;;;;5069127;28;20377;-72
2023/11/29 01:27:40;;;;;;;30.23;19.75;;;2.20;99.90;;;;;;5068490;28;20468;-73
2023/11/29 01:30:07;;;;;;;31.20;18.42;;;2.20;99.90;;;;;;5068875;28;20013;-72
2023/11/29 01:32:33;;;;;;;27.25;18.13;;;2.10;99.90;;;;;;5068063;28;20654;-73
2023/11/29 01:34:58;;;;;;;25.88;16.75;;;2.10;99.90;;;;;;5069019;28;20013;-72
2023/11/29 01:37:24;;;;;;;23.95;16.08;;;2.10;99.90;;;;;;5068661;28;20585;-72
2023/11/29 01:39:50;;;;;;;25.83;16.65;;;2.10;99.90;;;;;;5036023;28;20037;-73
2023/11/29 01:42:15;;;;;;;25.23;16.63;;;2.10;99.90;;;;;;5068718;28;20436;-72
2023/11/29 01:44:41;;;;;;;24.17;15.63;;;2.10;99.90;;;;;;5068262;28;20508;-73
2023/11/29 01:47:12;;;;;;;20.42;13.23;;;2.10;99.90;;;;;;5068570;28;20032;-72
2023/11/29 01:49:39;;;;;;;20.63;13.27;;;2.10;99.90;;;;;;5068404;28;20028;-73
2023/11/29 01:52:05;;;;;;;18.00;11.60;;;2.10;99.90;;;;;;5068539;28;20028;-72
2023/11/29 01:54:31;;;;;;;18.42;10.05;;;2.20;99.90;;;;;;5068348;28;20062;-72
2023/11/29 01:56:57;;;;;;;15.48;9.93;;;2.20;99.90;;;;;;5068405;28;20098;-73
2023/11/29 01:59:23;;;;;;;14.02;8.65;;;2.20;99.90;;;;;;5063625;28;20024;-72
2023/11/29 02:01:48;;;;;;;13.70;8.95;;;2.20;99.90;;;;;;5068172;28;20363;-72
2023/11/29 02:04:14;;;;;;;10.85;7.88;;;2.30;99.90;;;;;;5067923;28;20111;-72
2023/11/29 02:06:41;;;;;;;10.18;7.75;;;2.30;99.90;;;;;;5068256;28;20028;-72
2023/11/29 02:09:07;;;;;;;13.05;8.75;;;2.40;99.90;;;;;;5068248;28;20031;-72
2023/11/29 02:11:39;;;;;;;11.60;8.45;;;2.40;99.90;;;;;;5068320;28;20118;-73
2023/11/29 02:14:06;;;;;;;15.52;9.25;;;2.40;99.90;;;;;;5067684;28;20074;-72
2023/11/29 02:16:31;;;;;;;13.13;9.00;;;2.40;99.90;;;;;;5068260;28;20090;-72
2023/11/29 02:18:57;;;;;;;15.25;10.52;;;2.40;99.90;;;;;;5067893;28;20549;-73
2023/11/29 02:21:24;;;;;;;14.27;10.07;;;2.40;99.90;;;;;;5068115;28;20404;-72
2023/11/29 02:24:17;;;;;;;13.57;10.15;;;2.40;99.90;;;;;;5067231;28;20098;-73
2023/11/29 02:26:44;;;;;;;16.17;10.93;;;2.40;99.90;;;;;;5054836;28;20071;-72
2023/11/29 02:29:10;;;;;;;15.65;10.88;;;2.40;99.90;;;;;;5067517;28;20465;-73
2023/11/29 02:31:36;;;;;;;14.65;10.13;;;2.40;99.90;;;;;;5067728;28;20035;-73
2023/11/29 02:34:03;;;;;;;12.90;8.80;;;2.30;99.90;;;;;;5067440;28;20017;-73
2023/11/29 02:36:29;;;;;;;13.85;9.98;;;2.30;99.90;;;;;;5067969;28;20024;-73
2023/11/29 02:38:55;;;;;;;13.23;9.85;;;2.30;99.90;;;;;;5072278;28;20040;-73
2023/11/29 02:41:21;;;;;;;13.52;9.38;;;2.30;99.90;;;;;;5066396;28;20547;-72
2023/11/29 02:43:50;;;;;;;12.40;9.35;;;2.40;99.90;;;;;;5067055;28;20036;-73
2023/11/29 02:46:16;;;;;;;14.35;9.40;;;2.30;99.90;;;;;;5067731;28;20039;-72
2023/11/29 02:48:42;;;;;;;16.50;9.50;;;2.30;99.90;;;;;;5067067;28;20020;-72
2023/11/29 02:51:08;;;;;;;16.10;10.18;;;2.40;99.90;;;;;;5067445;28;20401;-73
2023/11/29 02:53:33;;;;;;;13.75;9.75;;;2.40;99.90;;;;;;5066807;28;20029;-72
2023/11/29 02:55:59;;;;;;;14.57;10.77;;;2.40;99.90;;;;;;5067213;28;20112;-72
2023/11/29 02:58:24;;;;;;;15.45;10.57;;;2.40;99.90;;;;;;5079851;28;20111;-73
2023/11/29 03:00:51;;;;;;;15.80;11.88;;;2.40;99.90;;;;;;5064802;28;20086;-72
2023/11/29 03:03:17;;;;;;;16.50;12.30;;;2.30;99.90;;;;;;5067154;28;20454;-72
2023/11/29 03:05:43;;;;;;;18.40;13.40;;;2.40;99.90;;;;;;5069695;28;20036;-72
2023/11/29 03:08:08;;;;;;;19.67;13.30;;;2.40;99.90;;;;;;5078515;28;20104;-72
2023/11/29 03:10:34;;;;;;;21.08;14.27;;;2.30;99.90;;;;;;5066914;28;20603;-71
2023/11/29 03:13:00;;;;;;;22.42;14.60;;;2.40;99.90;;;;;;5066793;28;20028;-72
2023/11/29 03:15:25;;;;;;;20.13;13.70;;;2.40;99.90;;;;;;5066752;28;20379;-72
2023/11/29 03:17:51;;;;;;;27.40;13.52;;;2.30;99.90;;;;;;5066325;28;20103;-72
2023/11/29 03:20:17;;;;;;;22.23;14.05;;;2.40;99.90;;;;;;5066904;28;20095;-72
2023/11/29 03:22:42;;;;;;;20.85;13.98;;;2.40;99.90;;;;;;5066522;28;20383;-72
2023/11/29 03:25:08;;;;;;;20.38;14.40;;;2.40;99.90;;;;;;5066513;28;20024;-72
2023/11/29 03:27:34;;;;;;;24.92;14.77;;;2.40;99.90;;;;;;5080909;28;20024;-73
2023/11/29 03:30:00;;;;;;;21.85;15.55;;;2.40;99.90;;;;;;5066633;28;20071;-72
2023/11/29 03:32:28;;;;;;;22.90;15.90;;;2.50;99.90;;;;;;5066695;28;20017;-72
2023/11/29 03:34:54;;;;;;;23.13;15.45;;;2.50;99.90;;;;;;5066139;28;20059;-72
2023/11/29 03:37:20;;;;;;;23.83;15.70;;;2.50;99.90;;;;;;5066960;28;20027;-73
2023/11/29 03:39:46;;;;;;;21.63;15.45;;;2.50;99.90;;;;;;5051994;28;20115;-72
2023/11/29 03:42:12;;;;;;;24.63;16.35;;;2.50;99.90;;;;;;5060008;28;20474;-72
2023/11/29 03:44:37;;;;;;;19.75;13.63;;;2.50;99.90;;;;;;5065989;28;20056;-72
2023/11/29 03:47:03;;;;;;;23.90;16.00;;;2.50;99.90;;;;;;5067251;28;20032;-72
2023/11/29 03:49:29;;;;;;;21.92;16.60;;;2.50;99.90;;;;;;5066051;28;20040;-72
2023/11/29 03:51:54;;;;;;;24.40;16.10;;;2.50;99.90;;;;;;5066403;28;20557;-72
2023/11/29 03:54:20;;;;;;;22.35;14.52;;;2.50;99.90;;;;;;5061385;28;20025;-72
2023/11/29 03:56:46;;;;;;;20.73;15.05;;;2.50;99.90;;;;;;5066615;28;20021;-72
2023/11/29 03:59:11;;;;;;;25.48;15.00;;;2.50;99.90;;;;;;5066232;28;20378;-72
2023/11/29 04:01:37;;;;;;;23.33;15.70;;;2.50;99.90;;;;;;5066703;28;20036;-72
2023/11/29 04:04:03;;;;;;;27.52;15.68;;;2.50;99.90;;;;;;5066057;28;20392;-72
2023/11/29 04:06:29;;;;;;;24.10;15.48;;;2.50;99.90;;;;;;5066420;28;20032;-72
2023/11/29 04:08:55;;;;;;;22.17;15.40;;;2.50;99.90;;;;;;5065979;28;20033;-72
2023/11/29 04:11:21;;;;;;;24.48;15.80;;;2.40;99.90;;;;;;5066511;28;20033;-73
2023/11/29 04:13:47;;;;;;;24.08;14.80;;;2.40;99.90;;;;;;5047828;28;20044;-72
2023/11/29 04:16:27;;;;;;;24.67;14.23;;;2.40;99.90;;;;;;5066355;28;20079;-73
2023/11/29 04:18:53;;;;;;;21.75;14.60;;;2.40;99.90;;;;;;5054974;28;20039;-72
2023/11/29 04:21:24;;;;;;;24.65;14.77;;;2.40;99.90;;;;;;5066764;28;20363;-72
2023/11/29 04:23:50;;;;;;;;;;;2.40;99.90;;;;;;5048249;28;20020;-72
2023/11/29 04:26:31;;;;;;;23.50;14.65;;;2.40;99.90;;;;;;5066410;28;19909;-72
2023/11/29 04:28:58;;;;;;;24.85;14.07;;;2.40;99.90;;;;;;5065886;28;20036;-73
2023/11/29 04:31:24;;;;;;;22.48;14.35;;;2.40;99.90;;;;;;5066168;28;20032;-72
2023/11/29 04:33:50;;;;;;;21.67;14.30;;;2.40;99.90;;;;;;5065918;28;20029;-73
2023/11/29 04:36:16;;;;;;;24.90;15.15;;;2.40;99.90;;;;;;5066096;28;20027;-72
2023/11/29 04:38:44;;;;;;;24.25;15.38;;;2.40;99.90;;;;;;5057533;28;20033;-72
2023/11/29 04:41:10;;;;;;;25.30;15.30;;;2.50;99.90;;;;;;5059162;28;20028;-72
2023/11/29 04:43:35;;;;;;;24.33;15.43;;;2.50;99.90;;;;;;5065748;28;20019;-72
2023/11/29 04:46:01;;;;;;;23.02;15.32;;;2.50;99.90;;;;;;5065792;28;20032;-72
2023/11/29 04:48:26;;;;;;;19.85;14.77;;;2.50;99.90;;;;;;5068146;28;20020;-72
2023/11/29 04:50:52;;;;;;;24.98;15.82;;;2.50;99.90;;;;;;5069384;28;20044;-72
2023/11/29 04:53:18;;;;;;;23.77;14.80;;;2.50;99.90;;;;;;5069578;28;20441;-72
2023/11/29 04:55:43;;;;;;;20.60;13.60;;;2.50;99.90;;;;;;5069526;28;20021;-72
2023/11/29 04:58:09;;;;;;;18.75;12.68;;;2.60;99.90;;;;;;5069256;28;20151;-72
2023/11/29 05:00:34;;;;;;;18.85;12.50;;;2.60;99.90;;;;;;5069535;28;20075;-72
2023/11/29 05:03:00;;;;;;;22.98;12.82;;;2.60;99.90;;;;;;5069846;28;20028;-72
2023/11/29 05:05:27;;;;;;;20.15;12.32;;;2.60;99.90;;;;;;5068966;28;20477;-72
2023/11/29 05:07:53;;;;;;;17.60;10.95;;;2.60;99.90;;;;;;5064760;28;20110;-73
2023/11/29 05:10:20;;;;;;;19.35;11.93;;;2.60;99.90;;;;;;5069208;28;20021;-72
2023/11/29 05:12:46;;;;;;;19.70;12.00;;;2.70;99.90;;;;;;5052130;28;20020;-72
2023/11/29 05:15:12;;;;;;;16.70;13.05;;;2.70;99.90;;;;;;5069363;28;20470;-72
2023/11/29 05:17:38;;;;;;;22.02;13.80;;;2.70;99.90;;;;;;5069015;28;20032;-72
2023/11/29 05:20:04;;;;;;;18.10;13.05;;;2.70;99.90;;;;;;5068912;28;20067;-72
2023/11/29 05:22:30;;;;;;;22.10;14.20;;;2.70;99.90;;;;;;5069302;28;20032;-72
2023/11/29 05:24:55;;;;;;;21.25;13.60;;;2.70;99.90;;;;;;5068798;28;20025;-72
2023/11/29 05:27:21;;;;;;;25.80;14.00;;;2.70;99.90;;;;;;5069013;28;20028;-72
2023/11/29 05:29:47;;;;;;;21.88;14.18;;;2.70;99.90;;;;;;5068735;28;20024;-73
2023/11/29 05:32:12;;;;;;;19.73;13.23;;;2.70;99.90;;;;;;5068905;28;20060;-72
2023/11/29 05:34:38;;;;;;;23.55;14.10;;;2.70;99.90;;;;;;5068609;28;20023;-72
2023/11/29 05:37:04;;;;;;;19.60;13.13;;;2.70;99.90;;;;;;5068408;28;20024;-72
2023/11/29 05:39:29;;;;;;;24.20;14.43;;;2.70;99.90;;;;;;5054153;28;20041;-72
2023/11/29 05:41:55;;;;;;;23.35;15.07;;;2.70;99.90;;;;;;5069094;28;20375;-72
2023/11/29 05:44:21;;;;;;;24.38;14.27;;;2.70;99.90;;;;;;5068338;28;20021;-72
2023/11/29 05:46:46;;;;;;;22.60;15.23;;;2.70;99.90;;;;;;5051943;28;20044;-72
2023/11/29 05:49:12;;;;;;;25.55;15.23;;;2.70;99.90;;;;;;5068363;28;20031;-72
2023/11/29 05:51:38;;;;;;;25.77;15.68;;;2.70;99.90;;;;;;5068335;28;20500;-72
2023/11/29 05:54:03;;;;;;;22.52;15.15;;;2.70;99.90;;;;;;5068398;28;20020;-72
2023/11/29 05:56:29;;;;;;;26.40;14.55;;;2.70;99.90;;;;;;5050529;28;20486;-72
2023/11/29 05:58:55;;;;;;;20.10;13.48;;;2.70;99.90;;;;;;5067508;28;20074;-72
2023/11/29 06:01:22;;;;;;;22.05;13.73;;;2.70;99.90;;;;;;5068403;28;20021;-72
2023/11/29 06:03:48;;;;;;;21.98;13.30;;;2.70;99.90;;;;;;5067598;28;20577;-72
2023/11/29 06:06:13;;;;;;;18.95;12.15;;;2.70;99.90;;;;;;5068162;28;20059;-72
2023/11/29 06:08:42;;;;;;;19.52;11.43;;;2.80;99.90;;;;;;5067808;28;20039;-72
2023/11/29 06:11:09;;;;;;;22.40;12.88;;;2.80;99.90;;;;;;5050171;28;20017;-72
2023/11/29 06:13:34;;;;;;;21.02;11.00;;;2.80;99.90;;;;;;5067764;28;20027;-73
2023/11/29 06:16:00;;;;;;;16.65;10.77;;;2.80;99.90;;;;;;5067877;28;20021;-73
2023/11/29 06:18:26;;;;;;;18.42;10.27;;;2.80;99.90;;;;;;5067849;28;20035;-71
2023/11/29 06:20:51;;;;;;;15.50;10.18;;;2.80;99.90;;;;;;5067638;28;20031;-72
2023/11/29 06:23:17;;;;;;;14.95;8.07;;;2.80;99.90;;;;;;5067689;28;20111;-71
2023/11/29 06:25:43;;;;;;;16.42;7.18;;;2.90;99.90;;;;;;5067518;28;20115;-73
2023/11/29 06:28:08;;;;;;;12.23;6.65;;;2.90;99.90;;;;;;5067758;28;20044;-72
2023/11/29 06:30:34;;;;;;;9.75;5.80;;;2.90;99.90;;;;;;5067537;28;20017;-72
2023/11/29 06:33:00;;;;;;;11.93;5.35;;;2.90;99.90;;;;;;5067602;28;20496;-72
2023/11/29 06:35:25;;;;;;;7.95;4.57;;;3.00;99.90;;;;;;5067607;28;20025;-72
2023/11/29 06:37:51;;;;;;;11.02;4.53;;;3.00;99.90;;;;;;5066622;28;20394;-72
2023/11/29 06:40:17;;;;;;;10.13;5.00;;;3.00;99.90;;;;;;5036152;28;20051;-72
2023/11/29 06:42:43;;;;;;;8.18;4.28;;;3.00;99.90;;;;;;5067515;28;20490;-72
2023/11/29 06:45:12;;;;;;;8.02;4.00;;;3.00;99.90;;;;;;5048959;28;20022;-72
2023/11/29 06:47:39;;;;;;;10.25;3.95;;;3.00;99.90;;;;;;5067467;28;20111;-72
2023/11/29 06:50:06;;;;;;;6.55;3.75;;;3.10;99.90;;;;;;5066223;28;20028;-72
2023/11/29 06:52:34;;;;;;;9.07;3.38;;;3.10;99.90;;;;;;5053408;28;20448;-72
2023/11/29 06:55:00;;;;;;;7.40;3.70;;;3.10;99.90;;;;;;5066697;28;20025;-72
2023/11/29 06:57:25;;;;;;;8.75;3.63;;;3.10;99.90;;;;;;5049199;28;20048;-72
2023/11/29 06:59:51;;;;;;;8.32;3.00;;;3.20;99.90;;;;;;5067060;28;20016;-72
2023/11/29 07:02:17;;;;;;;8.27;2.95;;;3.20;99.90;;;;;;5066816;28;20036;-72
2023/11/29 07:04:43;;;;;;;5.72;2.42;;;3.20;99.90;;;;;;5066388;28;20040;-72
2023/11/29 07:07:09;;;;;;;5.38;1.67;;;3.20;99.90;;;;;;5066972;28;20025;-72
2023/11/29 07:09:35;;;;;;;5.32;1.58;;;3.20;99.90;;;;;;5066199;28;20025;-72
2023/11/29 07:12:01;;;;;;;4.35;1.30;;;3.20;99.90;;;;;;5066157;28;20035;-72
2023/11/29 07:14:26;;;;;;;7.28;1.00;;;3.20;99.90;;;;;;5048474;28;20021;-73
2023/11/29 07:16:52;;;;;;;5.78;1.05;;;3.30;99.90;;;;;;5044917;28;20021;-73
2023/11/29 07:19:18;;;;;;;11.52;1.20;;;3.30;99.90;;;;;;5066113;28;20386;-73
2023/11/29 07:21:44;;;;;;;5.30;1.23;;;3.30;99.90;;;;;;5066637;28;20024;-73
2023/11/29 07:24:10;;;;;;;4.28;0.80;;;3.30;99.90;;;;;;5047664;28;20043;-72
2023/11/29 07:26:36;;;;;;;6.90;1.10;;;3.30;99.90;;;;;;5065979;28;20039;-73
2023/11/29 07:29:03;;;;;;;6.07;1.00;;;3.30;99.90;;;;;;5048460;28;20055;-73
2023/11/29 07:31:29;;;;;;;5.13;1.13;;;3.30;99.90;;;;;;5066264;28;20035;-73
2023/11/29 07:33:56;;;;;;;2.92;0.77;;;3.40;99.90;;;;;;5066056;28;20498;-73
2023/11/29 07:36:22;;;;;;;7.35;1.20;;;3.40;99.90;;;;;;5066568;28;20021;-73
2023/11/29 07:38:48;;;;;;;8.98;1.20;;;3.40;99.90;;;;;;5062823;28;20082;-73
2023/11/29 07:41:15;;;;;;;12.52;1.40;;;3.40;99.90;;;;;;5048514;28;20036;-73
2023/11/29 07:43:41;;;;;;;5.50;1.60;;;3.50;99.90;;;;;;5047978;28;20031;-72
2023/11/29 07:46:07;;;;;;;5.68;1.15;;;3.40;99.90;;;;;;5065005;28;20393;-73
2023/11/29 07:48:33;;;;;;;9.73;1.48;;;3.50;99.90;;;;;;5065869;28;20028;-72
2023/11/29 07:50:59;;;;;;;2.90;0.98;;;3.50;99.90;;;;;;5065735;28;20032;-72
2023/11/29 07:53:25;;;;;;;6.00;1.15;;;3.50;99.90;;;;;;5066228;28;20489;-72
2023/11/29 07:55:51;;;;;;;8.07;1.40;;;3.50;99.90;;;;;;5065757;28;20071;-73
2023/11/29 07:58:16;;;;;;;5.05;1.17;;;3.50;99.90;;;;;;5066058;28;20070;-72
2023/11/29 08:00:42;;;;;;;6.65;1.17;;;3.50;99.90;;;;;;5064985;28;20051;-72
2023/11/29 08:03:08;;;;;;;7.38;1.27;;;3.50;99.90;;;;;;5064029;28;20059;-73
2023/11/29 08:05:35;;;;;;;7.30;1.30;;;3.50;99.90;;;;;;5064272;28;20043;-72
2023/11/29 08:08:01;;;;;;;4.72;1.70;;;3.50;99.90;;;;;;5064441;28;20021;-73
2023/11/29 08:10:29;;;;;;;5.68;1.60;;;3.50;99.90;;;;;;5064327;28;20028;-73
2023/11/29 08:12:54;;;;;;;9.75;1.30;;;3.50;99.90;;;;;;5064334;28;20012;-73
2023/11/29 08:15:20;;;;;;;7.88;1.67;;;3.50;99.90;;;;;;5029824;28;20051;-73
2023/11/29 08:17:46;;;;;;;6.75;1.52;;;3.50;99.90;;;;;;5047458;28;20030;-73
2023/11/29 08:20:12;;;;;;;7.95;1.40;;;3.50;99.90;;;;;;5065837;28;20099;-73
2023/11/29 08:22:38;;;;;;;9.10;1.50;;;3.50;99.90;;;;;;5068331;28;20501;-73
2023/11/29 08:25:04;;;;;;;7.05;1.70;;;3.50;99.90;;;;;;5069348;28;20029;-73
2023/11/29 08:27:29;;;;;;;6.10;1.80;;;3.50;99.90;;;;;;5070040;28;20028;-72
2023/11/29 08:29:55;;;;;;;9.02;1.90;;;3.60;99.90;;;;;;5051331;28;20594;-72
2023/11/29 08:32:20;;;;;;;10.65;2.08;;;3.60;99.90;;;;;;5069993;28;20030;-72
2023/11/29 08:34:46;;;;;;;6.43;1.90;;;3.70;99.90;;;;;;5069738;28;20036;-73
2023/11/29 08:37:12;;;;;;;12.50;2.40;;;3.70;99.90;;;;;;5069975;28;20035;-72
2023/11/29 08:39:37;;;;;;;11.02;2.63;;;3.70;99.90;;;;;;5068990;28;20055;-72
2023/11/29 08:42:04;;;;;;;10.43;2.88;;;3.70;99.90;;;;;;5069860;28;20481;-73
2023/11/29 08:44:31;;;;;;;12.25;3.08;;;3.70;99.90;;;;;;5069328;28;20589;-73
2023/11/29 08:46:57;;;;;;;9.82;2.80;;;3.70;99.90;;;;;;5065769;28;20017;-73
2023/11/29 08:49:23;;;;;;;13.45;3.25;;;3.70;99.90;;;;;;5069180;28;20033;-73
2023/11/29 08:51:48;;;;;;;8.02;2.95;;;3.80;99.90;;;;;;5069066;28;20074;-73
2023/11/29 08:54:14;;;;;;;9.20;2.92;;;3.70;99.90;;;;;;5064699;28;20028;-73
2023/11/29 08:56:41;;;;;;;12.38;3.40;;;3.70;99.90;;;;;;5051125;28;20086;-73
2023/11/29 08:59:06;;;;;;;10.40;3.05;;;3.70;99.90;;;;;;5069114;28;20024;-73
2023/11/29 09:01:32;;;;;;;7.68;3.30;;;3.70;99.90;;;;;;5069351;28;20049;-73
2023/11/29 09:03:58;;;;;;;10.43;2.85;;;3.60;99.90;;;;;;5051074;28;20067;-73
2023/11/29 09:06:24;;;;;;;9.48;3.08;;;3.60;99.90;;;;;;5069043;28;20024;-73
2023/11/29 09:08:50;;;;;;;11.52;3.35;;;3.60;99.90;;;;;;5069043;28;20105;-72
2023/11/29 09:11:16;;;;;;;9.80;3.30;;;3.60;99.90;;;;;;5068999;28;20032;-73
2023/11/29 09:13:44;;;;;;;8.65;3.40;;;3.60;99.90;;;;;;5050883;28;20090;-73
2023/11/29 09:16:11;;;;;;;12.00;3.33;;;3.60;99.90;;;;;;5050910;28;20389;-73
2023/11/29 09:18:39;;;;;;;9.75;3.50;;;3.70;99.90;;;;;;5037600;28;20051;-73
2023/11/29 09:21:05;;;;;;;8.75;3.50;;;3.70;99.90;;;;;;5068755;28;20021;-73
2023/11/29 09:23:32;;;;;;;11.40;3.33;;;3.80;99.90;;;;;;5056563;28;20024;-73
2023/11/29 09:25:58;;;;;;;8.82;3.75;;;3.90;99.90;;;;;;5068584;28;20028;-73
2023/11/29 09:28:24;;;;;;;10.57;3.65;;;3.90;99.90;;;;;;5068553;28;20025;-73
2023/11/29 09:30:50;;;;;;;9.40;3.67;;;4.00;99.90;;;;;;5050285;28;20038;-73
2023/11/29 09:33:15;;;;;;;13.85;4.20;;;4.10;99.90;;;;;;5067840;28;20512;-72
2023/11/29 09:35:42;;;;;;;8.18;3.72;;;4.10;99.90;;;;;;5068155;28;20029;-73
2023/11/29 09:38:09;;;;;;;12.65;4.38;;;4.30;99.90;;;;;;5068837;28;20017;-72
2023/11/29 09:40:34;;;;;;;8.50;3.78;;;4.30;99.90;;;;;;5077837;28;20566;-73
2023/11/29 09:43:00;;;;;;;11.10;3.83;;;4.40;99.90;;;;;;5069678;28;20025;-73
2023/11/29 09:45:26;;;;;;;11.02;4.10;;;4.40;99.90;;;;;;5071233;28;20031;-72
2023/11/29 09:47:55;;;;;;;11.05;3.58;;;4.50;99.90;;;;;;5061489;28;20020;-73
2023/11/29 09:50:21;;;;;;;10.15;4.07;;;4.50;99.90;;;;;;5070853;28;20048;-73
2023/11/29 09:52:47;;;;;;;8.30;3.35;;;4.60;99.90;;;;;;5069945;28;20032;-73
2023/11/29 09:55:14;;;;;;;10.32;3.80;;;4.60;99.90;;;;;;5071150;28;20036;-72
2023/11/29 09:57:40;;;;;;;11.60;3.85;;;4.70;99.90;;;;;;5070643;28;20028;-72
2023/11/29 10:00:09;;;;;;;8.23;4.38;;;4.70;99.90;;;;;;5050837;28;20028;-73
2023/11/29 10:02:35;;;;;;;11.80;3.97;;;4.70;99.90;;;;;;5069297;28;20028;-72
2023/11/29 10:05:01;;;;;;;7.38;3.78;;;4.80;99.90;;;;;;5067854;28;20526;-73
2023/11/29 10:07:27;;;;;;;10.52;3.70;;;4.80;99.90;;;;;;5050040;28;20106;-73
2023/11/29 10:10:02;;;;;;;7.43;3.75;;;4.80;99.90;;;;;;5068075;28;20114;-73
2023/11/29 10:12:28;;;;;;;12.40;3.50;;;4.90;99.90;;;;;;5067947;28;20035;-72
2023/11/29 10:14:54;;;;;;;7.57;3.42;;;5.00;99.90;;;;;;5075863;28;20028;-72
2023/11/29 10:17:20;;;;;;;7.38;3.47;;;5.00;99.90;;;;;;5044064;28;20043;-73
2023/11/29 10:19:46;;;;;;;9.85;4.38;;;5.10;99.90;;;;;;5072098;28;20477;-73
2023/11/29 10:22:15;;;;;;;9.50;3.72;;;5.10;99.90;;;;;;5067971;28;20021;-73
2023/11/29 10:24:41;;;;;;;10.20;4.20;;;5.10;99.90;;;;;;5067233;28;20051;-73
2023/11/29 10:27:08;;;;;;;10.93;4.43;;;5.10;99.90;;;;;;5067494;28;20107;-73
2023/11/29 10:29:34;;;;;;;9.35;3.63;;;5.20;99.90;;;;;;5067017;28;20017;-73
2023/11/29 10:32:03;;;;;;;10.25;3.85;;;5.20;99.90;;;;;;5067887;28;20077;-73
2023/11/29 10:34:33;;;;;;;9.23;3.60;;;5.20;99.90;;;;;;5067266;28;20017;-73
2023/11/29 10:37:00;;;;;;;9.85;3.50;;;5.20;99.90;;;;;;5067520;28;20024;-73
2023/11/29 10:39:32;;;;;;;10.30;3.47;;;5.20;99.90;;;;;;5064951;28;20048;-72
2023/11/29 10:41:59;;;;;;;8.85;3.63;;;5.20;99.90;;;;;;5049434;28;20059;-73
2023/11/29 10:44:36;;;;;;;5.07;2.70;;;5.20;99.90;;;;;;5066832;28;20539;-73
2023/11/29 10:47:17;;;;;;;8.25;3.10;;;5.20;99.90;;;;;;5063452;28;20084;-72
2023/11/29 10:49:49;;;;;;;7.18;3.20;;;5.20;99.90;;;;;;5048824;28;20535;-73
2023/11/29 10:52:18;;;;;;;8.15;3.03;;;5.20;99.90;;;;;;5067013;28;20028;-72
2023/11/29 10:54:46;;;;;;;7.75;2.95;;;5.20;99.90;;;;;;5066862;28;20052;-73
2023/11/29 10:57:16;;;;;;;5.72;3.10;;;5.20;99.90;;;;;;5067098;28;20039;-73
2023/11/29 10:59:51;;;;;;;9.57;3.17;;;5.20;99.90;;;;;;5066748;28;20023;-73
2023/11/29 11:02:17;;;;;;;6.18;3.05;;;5.20;99.90;;;;;;5067038;28;20044;-73
2023/11/29 11:04:44;;;;;;;9.85;3.50;;;5.20;99.90;;;;;;5048280;28;20605;-73
2023/11/29 11:07:36;;;;;;;7.05;2.70;;;5.20;99.90;;;;;;5049188;28;20444;-73
2023/11/29 11:10:02;;;;;;;6.50;2.80;;;5.20;99.90;;;;;;5048069;28;20046;-73
2023/11/29 11:12:34;;;;;;;10.38;2.97;;;5.20;99.90;;;;;;5066783;28;20478;-73
2023/11/29 11:15:07;;;;;;;4.38;2.28;;;5.30;99.90;;;;;;5066338;28;20047;-73
2023/11/29 11:17:36;;;;;;;7.90;2.70;;;5.40;99.90;;;;;;5048350;28;20017;-73
2023/11/29 11:20:07;;;;;;;6.95;3.05;;;5.50;99.90;;;;;;5066563;28;20035;-73
2023/11/29 11:22:42;;;;;;;13.27;4.75;;;5.70;99.90;;;;;;5080997;28;20358;-73
2023/11/29 11:25:16;;;;;;;10.13;3.63;;;5.80;99.90;;;;;;5048493;28;20020;-73
2023/11/29 11:27:48;;;;;;;6.18;3.22;;;5.90;99.90;;;;;;5049915;28;20119;-73
2023/11/29 11:30:14;;;;;;;11.48;3.42;;;5.90;99.90;;;;;;5055610;28;20868;-73
2023/11/29 11:32:40;;;;;;;7.25;2.90;;;6.10;99.90;;;;;;5048286;28;20020;-73
2023/11/29 11:35:24;;;;;;;5.85;2.80;;;6.20;99.90;;;;;;5066191;28;20017;-73
2023/11/29 11:38:01;;;;;;;5.82;2.70;;;6.40;99.90;;;;;;5065848;28;20056;-73
2023/11/29 11:40:31;;;;;;;7.53;2.85;;;6.50;99.90;;;;;;5064590;28;20040;-73
2023/11/29 11:42:57;;;;;;;4.32;2.42;;;6.50;99.90;;;;;;5066115;28;20021;-73
2023/11/29 11:45:24;;;;;;;10.70;3.08;;;6.40;99.90;;;;;;5064706;28;20032;-73
2023/11/29 11:47:50;;;;;;;6.35;3.20;;;6.30;99.90;;;;;;5064098;28;20091;-73
2023/11/29 11:50:17;;;;;;;9.43;2.90;;;6.30;99.90;;;;;;5047814;28;20032;-73
2023/11/29 11:52:43;;;;;;;8.10;2.70;;;6.40;99.90;;;;;;5065940;28;20107;-72
2023/11/29 11:55:12;;;;;;;7.38;2.65;;;6.50;99.90;;;;;;5065783;28;20107;-73
2023/11/29 11:57:39;;;;;;;7.63;3.10;;;6.50;99.90;;;;;;5070923;28;20024;-72
2023/11/29 12:00:06;;;;;;;8.63;2.58;;;6.50;99.90;;;;;;5072427;28;20025;-73
2023/11/29 12:02:33;;;;;;;9.65;2.97;;;6.40;99.90;;;;;;5071399;28;20107;-72
2023/11/29 12:04:59;;;;;;;8.98;2.67;;;6.30;99.90;;;;;;5072434;28;20028;-73
2023/11/29 12:07:25;;;;;;;7.35;2.58;;;6.20;99.90;;;;;;5071536;28;20086;-73
2023/11/29 12:09:51;;;;;;;8.77;3.00;;;6.10;99.90;;;;;;5071848;28;20036;-73
2023/11/29 12:12:19;;;;;;;7.88;3.22;;;6.00;99.90;;;;;;5072000;28;20521;-73
2023/11/29 12:14:49;;;;;;;8.85;2.95;;;5.90;99.90;;;;;;5072740;28;20021;-73
2023/11/29 12:17:18;;;;;;;7.63;2.63;;;5.80;99.90;;;;;;5071862;28;20115;-72
2023/11/29 12:19:46;;;;;;;10.60;3.50;;;5.80;99.90;;;;;;5072664;28;20074;-73
2023/11/29 12:22:13;;;;;;;6.93;3.05;;;5.70;99.90;;;;;;5072590;28;20103;-73
2023/11/29 12:24:47;;;;;;;13.30;2.88;;;5.70;99.90;;;;;;5069229;28;20021;-73
2023/11/29 12:27:19;;;;;;;5.57;2.40;;;5.60;99.90;;;;;;5053573;28;20025;-73
2023/11/29 12:29:47;;;;;;;10.88;2.80;;;5.50;99.90;;;;;;5072408;28;20052;-72
2023/11/29 12:32:13;;;;;;;12.75;3.20;;;5.40;99.90;;;;;;5072409;28;20078;-73
2023/11/29 12:34:41;;;;;;;8.45;2.78;;;5.40;99.90;;;;;;5070956;28;20021;-73
2023/11/29 12:37:12;;;;;;;7.70;2.50;;;5.30;99.90;;;;;;5061090;28;20025;-73
2023/11/29 12:39:38;;;;;;;;;;;5.30;99.90;;;;;;5072179;28;20041;-74
2023/11/29 12:42:04;;;;;;;7.30;2.53;;;5.30;99.90;;;;;;5072466;28;19955;-73